createdAt,value
2018-05-21T00:00:54.209Z,93.60
2018-05-21T00:03:20.536Z,94.10
2018-05-21T00:05:46.928Z,94.60
2018-05-21T00:08:13.231Z,94.30
2018-05-21T00:10:39.571Z,93.80
2018-05-21T00:13:06.911Z,93.60
2018-05-21T00:15:33.270Z,93.50
2018-05-21T00:17:59.616Z,93.60
2018-05-21T00:20:26.726Z,93.40
2018-05-21T00:22:53.029Z,93.40
2018-05-21T00:25:19.407Z,93.40
2018-05-21T00:27:45.745Z,93.20
2018-05-21T00:30:12.896Z,93.60
2018-05-21T00:32:39.216Z,93.60
2018-05-21T00:35:05.657Z,93.30
2018-05-21T00:37:32.762Z,93.50
2018-05-21T00:39:59.104Z,93.50
2018-05-21T00:42:25.459Z,93.80
2018-05-21T00:44:52.691Z,94.10
2018-05-21T00:47:19.042Z,94.00
2018-05-21T00:49:46.108Z,94.60
2018-05-21T00:52:12.507Z,94.60
2018-05-21T00:54:51.156Z,94.30
2018-05-21T00:57:18.302Z,93.30
2018-05-21T00:59:45.466Z,93.30
2018-05-21T01:02:11.854Z,93.50
2018-05-21T01:04:38.191Z,93.10
2018-05-21T01:07:04.630Z,93.20
2018-05-21T01:09:31.000Z,92.80
2018-05-21T01:11:57.341Z,93.00
2018-05-21T01:14:23.651Z,93.00
2018-05-21T01:16:50.028Z,92.90
2018-05-21T01:19:16.392Z,92.60
2018-05-21T01:21:42.773Z,92.60
2018-05-21T01:24:09.804Z,92.60
2018-05-21T01:26:36.123Z,92.60
2018-05-21T01:29:02.495Z,92.60
2018-05-21T01:31:28.821Z,92.50
2018-05-21T01:33:55.159Z,92.50
2018-05-21T01:36:21.514Z,92.10
2018-05-21T01:38:48.615Z,92.30
2018-05-21T01:41:14.987Z,92.30
2018-05-21T01:43:42.144Z,92.10
2018-05-21T01:46:08.505Z,92.10
2018-05-21T01:48:34.844Z,92.10
2018-05-21T01:51:01.261Z,91.80
2018-05-21T01:53:27.572Z,91.90
2018-05-21T01:55:53.947Z,92.20
2018-05-21T01:58:21.111Z,91.50
2018-05-21T02:00:47.480Z,91.50
2018-05-21T02:03:14.566Z,91.90
2018-05-21T02:05:40.959Z,91.90
2018-05-21T02:08:07.337Z,91.00
2018-05-21T02:10:33.721Z,91.00
2018-05-21T02:13:00.109Z,91.30
2018-05-21T02:15:27.051Z,90.60
2018-05-21T02:17:53.424Z,90.30
2018-05-21T02:20:19.877Z,90.40
2018-05-21T02:22:46.087Z,90.60
2018-05-21T02:25:13.162Z,91.20
2018-05-21T02:27:39.470Z,91.20
2018-05-21T02:30:05.811Z,91.30
2018-05-21T02:32:32.189Z,90.80
2018-05-21T02:34:59.291Z,89.30
2018-05-21T02:37:25.651Z,89.30
2018-05-21T02:39:52.031Z,89.10
2018-05-21T02:42:18.403Z,89.30
2018-05-21T02:44:44.796Z,90.20
2018-05-21T02:47:11.106Z,89.50
2018-05-21T02:49:37.451Z,90.00
2018-05-21T02:52:03.825Z,90.10
2018-05-21T02:54:30.161Z,90.00
2018-05-21T02:56:56.530Z,90.30
2018-05-21T02:59:23.572Z,89.70
2018-05-21T03:01:49.920Z,89.70
2018-05-21T03:04:16.243Z,90.30
2018-05-21T03:06:42.531Z,90.30
2018-05-21T03:09:08.928Z,90.40
2018-05-21T03:11:35.296Z,90.10
2018-05-21T03:14:01.640Z,90.40
2018-05-21T03:16:28.714Z,90.60
2018-05-21T03:18:55.082Z,90.50
2018-05-21T03:21:21.354Z,90.40
2018-05-21T03:23:48.413Z,90.30
2018-05-21T03:26:14.766Z,90.30
2018-05-21T03:28:41.084Z,90.10
2018-05-21T03:31:07.424Z,87.00
2018-05-21T03:33:33.731Z,88.00
2018-05-21T03:36:00.095Z,89.00
2018-05-21T03:38:26.435Z,88.10
2018-05-21T03:40:52.755Z,88.20
2018-05-21T03:43:19.063Z,87.80
2018-05-21T03:45:45.408Z,87.80
2018-05-21T03:48:11.720Z,87.40
2018-05-21T03:50:38.084Z,87.40
2018-05-21T03:53:04.408Z,88.10
2018-05-21T03:55:30.818Z,87.70
2018-05-21T03:57:57.158Z,87.30
2018-05-21T04:00:41.776Z,88.90
2018-05-21T04:03:27.065Z,89.40
2018-05-21T04:05:53.368Z,89.40
2018-05-21T04:08:20.401Z,89.50
2018-05-21T04:10:47.623Z,89.40
2018-05-21T04:13:13.951Z,90.00
2018-05-21T04:15:40.267Z,90.20
2018-05-21T04:18:07.601Z,89.50
2018-05-21T04:20:33.962Z,90.40
2018-05-21T04:23:00.267Z,90.20
2018-05-21T04:25:26.579Z,88.40
2018-05-21T04:27:52.936Z,88.80
2018-05-21T04:30:19.262Z,88.90
2018-05-21T04:32:45.566Z,89.90
2018-05-21T04:35:11.936Z,89.10
2018-05-21T04:37:38.340Z,87.70
2018-05-21T04:40:04.704Z,87.90
2018-05-21T04:42:31.007Z,88.10
2018-05-21T04:44:57.345Z,87.10
2018-05-21T04:47:23.690Z,88.00
2018-05-21T04:49:50.031Z,88.80
2018-05-21T04:52:16.333Z,89.20
2018-05-21T04:54:42.674Z,90.20
2018-05-21T04:57:08.997Z,89.70
2018-05-21T04:59:35.303Z,88.30
2018-05-21T05:02:01.671Z,87.60
2018-05-21T05:04:27.986Z,86.80
2018-05-21T05:06:54.317Z,86.80
2018-05-21T05:09:20.652Z,86.60
2018-05-21T05:11:46.982Z,85.50
2018-05-21T05:14:13.263Z,85.80
2018-05-21T05:16:39.645Z,85.00
2018-05-21T05:19:06.068Z,82.80
2018-05-21T05:21:32.381Z,82.80
2018-05-21T05:23:58.732Z,83.60
2018-05-21T05:26:25.109Z,84.10
2018-05-21T05:28:52.195Z,83.60
2018-05-21T05:31:18.509Z,83.00
2018-05-21T05:33:44.860Z,82.50
2018-05-21T05:36:11.170Z,82.60
2018-05-21T05:38:37.585Z,81.10
2018-05-21T05:41:03.932Z,78.30
2018-05-21T05:43:30.256Z,79.60
2018-05-21T05:45:56.562Z,77.60
2018-05-21T05:48:22.983Z,80.30
2018-05-21T05:50:49.308Z,77.60
2018-05-21T05:53:16.350Z,77.60
2018-05-21T05:55:42.658Z,77.60
2018-05-21T05:58:08.974Z,67.10
2018-05-21T06:00:35.431Z,68.30
2018-05-21T06:03:01.763Z,67.50
2018-05-21T06:05:28.851Z,64.10
2018-05-21T06:07:55.201Z,64.10
2018-05-21T06:10:21.538Z,64.60
2018-05-21T06:12:47.871Z,64.20
2018-05-21T06:15:14.194Z,62.80
2018-05-21T06:17:40.602Z,62.00
2018-05-21T06:20:06.946Z,61.80
2018-05-21T06:22:33.296Z,61.20
2018-05-21T06:24:59.620Z,59.70
2018-05-21T06:27:25.994Z,60.30
2018-05-21T06:29:53.065Z,62.80
2018-05-21T06:32:19.367Z,62.80
2018-05-21T06:34:46.492Z,60.80
2018-05-21T06:37:12.839Z,60.80
2018-05-21T06:39:39.126Z,60.60
2018-05-21T06:42:05.467Z,61.60
2018-05-21T06:44:31.808Z,62.00
2018-05-21T06:46:58.161Z,60.40
2018-05-21T06:49:25.204Z,59.90
2018-05-21T06:51:51.563Z,59.90
2018-05-21T06:54:17.932Z,58.90
2018-05-21T06:56:45.082Z,60.10
2018-05-21T06:59:11.393Z,59.00
2018-05-21T07:01:37.748Z,59.60
2018-05-21T07:04:04.103Z,59.50
2018-05-21T07:06:38.583Z,60.00
2018-05-21T07:09:04.960Z,59.70
2018-05-21T07:11:32.031Z,59.30
2018-05-21T07:13:58.360Z,59.30
2018-05-21T07:16:24.728Z,59.50
2018-05-21T07:18:51.063Z,58.80
2018-05-21T07:21:17.405Z,59.40
2018-05-21T07:23:43.783Z,59.60
2018-05-21T07:26:10.083Z,57.80
2018-05-21T07:28:36.436Z,59.10
2018-05-21T07:31:02.792Z,59.30
2018-05-21T07:33:29.123Z,61.30
2018-05-21T07:35:55.429Z,59.20
2018-05-21T07:38:21.772Z,58.60
2018-05-21T07:40:48.071Z,60.00
2018-05-21T07:43:14.385Z,61.00
2018-05-21T07:45:40.800Z,61.10
2018-05-21T07:48:07.111Z,57.80
2018-05-21T07:50:33.440Z,59.90
2018-05-21T07:52:59.747Z,56.80
2018-05-21T07:55:26.166Z,58.40
2018-05-21T07:57:52.643Z,56.80
2018-05-21T08:00:19.755Z,57.60
2018-05-21T08:02:46.150Z,58.20
2018-05-21T08:05:13.272Z,57.50
2018-05-21T08:07:39.604Z,57.50
2018-05-21T08:10:05.973Z,56.90
2018-05-21T08:12:32.342Z,58.20
2018-05-21T08:14:58.678Z,57.80
2018-05-21T08:17:24.999Z,56.20
2018-05-21T08:19:51.335Z,57.10
2018-05-21T08:22:17.766Z,57.90
2018-05-21T08:24:44.741Z,57.10
2018-05-21T08:27:11.885Z,56.30
2018-05-21T08:29:38.229Z,56.20
2018-05-21T08:32:05.268Z,55.90
2018-05-21T08:34:32.346Z,55.60
2018-05-21T08:36:59.632Z,55.60
2018-05-21T08:39:26.000Z,58.70
2018-05-21T08:41:53.060Z,58.10
2018-05-21T08:44:19.470Z,58.00
2018-05-21T08:46:46.524Z,55.00
2018-05-21T08:49:13.587Z,54.80
2018-05-21T08:51:39.922Z,54.70
2018-05-21T08:54:06.284Z,54.90
2018-05-21T08:56:32.746Z,53.30
2018-05-21T08:58:59.036Z,53.60
2018-05-21T09:01:25.437Z,53.30
2018-05-21T09:03:51.820Z,53.50
2018-05-21T09:06:18.164Z,53.50
2018-05-21T09:08:44.476Z,53.50
2018-05-21T09:11:10.853Z,54.90
2018-05-21T09:13:37.217Z,53.50
2018-05-21T09:16:03.612Z,54.00
2018-05-21T09:18:29.976Z,53.20
2018-05-21T09:20:56.314Z,54.80
2018-05-21T09:23:22.657Z,54.10
2018-05-21T09:25:49.032Z,53.50
2018-05-21T09:28:15.382Z,52.60
2018-05-21T09:30:41.761Z,53.20
2018-05-21T09:33:08.072Z,52.90
2018-05-21T09:35:34.448Z,53.90
2018-05-21T09:38:01.513Z,53.50
2018-05-21T09:40:28.617Z,53.80
2018-05-21T09:42:55.255Z,53.70
2018-05-21T09:45:21.595Z,53.90
2018-05-21T09:47:47.984Z,52.00
2018-05-21T09:50:14.296Z,52.10
2018-05-21T09:52:40.690Z,52.40
2018-05-21T09:55:07.768Z,52.40
2018-05-21T09:57:34.065Z,52.40
2018-05-21T10:00:01.165Z,53.40
2018-05-21T10:02:27.553Z,53.40
2018-05-21T10:04:54.685Z,52.50
2018-05-21T10:07:21.775Z,52.50
2018-05-21T10:09:48.110Z,53.10
2018-05-21T10:12:21.589Z,52.00
2018-05-21T10:14:47.945Z,52.10
2018-05-21T10:17:14.283Z,51.80
2018-05-21T10:19:40.679Z,50.20
2018-05-21T10:22:07.097Z,49.90
2018-05-21T10:24:33.454Z,51.10
2018-05-21T10:26:59.808Z,51.00
2018-05-21T10:29:26.140Z,49.80
2018-05-21T10:31:53.217Z,50.50
2018-05-21T10:34:20.330Z,50.40
2018-05-21T10:36:46.656Z,50.30
2018-05-21T10:39:12.992Z,51.50
2018-05-21T10:41:39.351Z,49.20
2018-05-21T10:44:05.697Z,48.90
2018-05-21T10:46:32.821Z,49.40
2018-05-21T10:48:59.138Z,49.30
2018-05-21T10:51:25.537Z,49.80
2018-05-21T10:53:51.864Z,50.40
2018-05-21T10:56:19.239Z,49.80
2018-05-21T10:58:46.120Z,50.00
2018-05-21T11:01:12.489Z,49.10
2018-05-21T11:03:39.552Z,49.40
2018-05-21T11:06:05.891Z,49.40
2018-05-21T11:08:32.249Z,49.70
2018-05-21T11:10:59.340Z,49.20
2018-05-21T11:13:25.660Z,49.20
2018-05-21T11:15:51.995Z,49.30
2018-05-21T11:18:18.343Z,48.90
2018-05-21T11:20:44.677Z,49.10
2018-05-21T11:23:10.967Z,48.30
2018-05-21T11:25:38.084Z,48.00
2018-05-21T11:28:04.400Z,48.00
2018-05-21T11:30:30.699Z,47.10
2018-05-21T11:32:57.048Z,47.80
2018-05-21T11:35:23.331Z,47.60
2018-05-21T11:37:49.665Z,47.50
2018-05-21T11:40:16.043Z,47.90
2018-05-21T11:42:42.400Z,47.70
2018-05-21T11:45:09.524Z,48.10
2018-05-21T11:47:35.896Z,48.00
2018-05-21T11:50:02.326Z,47.90
2018-05-21T11:52:28.698Z,46.80
2018-05-21T11:54:55.068Z,47.30
2018-05-21T11:57:21.424Z,46.40
2018-05-21T11:59:47.796Z,45.80
2018-05-21T12:02:14.170Z,45.60
2018-05-21T12:04:41.242Z,47.20
2018-05-21T12:07:07.578Z,47.30
2018-05-21T12:09:34.671Z,46.20
2018-05-21T12:12:01.085Z,46.10
2018-05-21T12:14:27.497Z,47.40
2018-05-21T12:16:53.960Z,46.10
2018-05-21T12:19:20.284Z,45.60
2018-05-21T12:21:46.716Z,46.60
2018-05-21T12:24:13.066Z,45.10
2018-05-21T12:26:40.131Z,43.50
2018-05-21T12:29:07.204Z,43.40
2018-05-21T12:31:33.559Z,43.40
2018-05-21T12:33:59.915Z,42.50
2018-05-21T12:36:26.282Z,43.90
2018-05-21T12:38:52.647Z,44.00
2018-05-21T12:41:19.002Z,43.00
2018-05-21T12:43:46.091Z,44.20
2018-05-21T12:46:12.472Z,43.60
2018-05-21T12:48:39.023Z,41.90
2018-05-21T12:51:05.306Z,42.20
2018-05-21T12:53:31.694Z,42.10
2018-05-21T12:55:58.075Z,42.50
2018-05-21T12:58:24.397Z,41.00
2018-05-21T13:00:50.707Z,41.30
2018-05-21T13:03:17.061Z,40.90
2018-05-21T13:05:43.412Z,41.20
2018-05-21T13:08:10.272Z,40.30
2018-05-21T13:10:37.359Z,39.80
2018-05-21T13:13:03.786Z,39.80
2018-05-21T13:15:30.216Z,39.60
2018-05-21T13:17:56.595Z,40.50
2018-05-21T13:20:22.897Z,41.20
2018-05-21T13:22:49.226Z,40.50
2018-05-21T13:25:16.162Z,39.70
2018-05-21T13:27:42.476Z,38.60
2018-05-21T13:30:08.855Z,40.00
2018-05-21T13:32:35.172Z,38.40
2018-05-21T13:35:01.577Z,38.40
2018-05-21T13:37:27.911Z,38.60
2018-05-21T13:39:54.272Z,38.30
2018-05-21T13:42:20.597Z,36.80
2018-05-21T13:44:47.052Z,36.00
2018-05-21T13:47:14.160Z,38.00
2018-05-21T13:49:40.481Z,38.00
2018-05-21T13:52:07.625Z,38.00
2018-05-21T13:54:33.946Z,38.00
2018-05-21T13:57:00.316Z,39.00
2018-05-21T13:59:26.628Z,36.60
2018-05-21T14:01:52.998Z,35.80
2018-05-21T14:04:20.098Z,35.80
2018-05-21T14:06:46.450Z,35.80
2018-05-21T14:09:12.771Z,36.40
2018-05-21T14:11:39.092Z,35.40
2018-05-21T14:14:05.417Z,36.50
2018-05-21T14:16:31.762Z,36.70
2018-05-21T14:18:58.189Z,37.20
2018-05-21T14:21:24.545Z,38.60
2018-05-21T14:23:51.613Z,38.90
2018-05-21T14:26:17.955Z,38.90
2018-05-21T14:28:44.981Z,38.90
2018-05-21T14:31:12.083Z,38.20
2018-05-21T14:33:38.415Z,38.00
2018-05-21T14:36:04.779Z,38.90
2018-05-21T14:38:31.922Z,38.50
2018-05-21T14:40:58.345Z,38.50
2018-05-21T14:43:24.688Z,38.30
2018-05-21T14:45:51.049Z,36.50
2018-05-21T14:48:17.426Z,37.60
2018-05-21T14:50:43.854Z,36.70
2018-05-21T14:53:10.195Z,38.00
2018-05-21T14:55:36.576Z,38.80
2018-05-21T14:58:03.692Z,38.80
2018-05-21T15:00:30.906Z,39.50
2018-05-21T15:02:57.523Z,39.40
2018-05-21T15:05:23.994Z,40.60
2018-05-21T15:07:50.309Z,40.80
2018-05-21T15:10:16.666Z,41.20
2018-05-21T15:12:43.785Z,41.20
2018-05-21T15:15:10.192Z,41.20
2018-05-21T15:17:36.840Z,41.80
2018-05-21T15:20:03.212Z,41.80
2018-05-21T15:22:30.410Z,40.70
2018-05-21T15:24:56.705Z,40.60
2018-05-21T15:27:23.801Z,42.50
2018-05-21T15:29:50.122Z,42.40
2018-05-21T15:32:16.529Z,42.90
2018-05-21T15:34:42.897Z,44.10
2018-05-21T15:37:10.013Z,45.20
2018-05-21T15:39:36.404Z,45.10
2018-05-21T15:42:03.524Z,46.40
2018-05-21T15:44:29.912Z,46.30
2018-05-21T15:46:56.218Z,46.90
2018-05-21T15:49:23.357Z,47.20
2018-05-21T15:51:50.465Z,49.10
2018-05-21T15:54:16.822Z,48.20
2018-05-21T15:56:43.203Z,48.20
2018-05-21T15:59:09.581Z,48.00
2018-05-21T16:01:35.978Z,49.00
2018-05-21T16:04:02.375Z,48.80
2018-05-21T16:06:28.760Z,51.30
2018-05-21T16:08:55.142Z,50.50
2018-05-21T16:11:21.611Z,49.40
2018-05-21T16:13:47.958Z,50.10
2018-05-21T16:16:14.319Z,50.30
2018-05-21T16:18:41.391Z,54.00
2018-05-21T16:21:07.756Z,54.20
2018-05-21T16:23:34.117Z,51.10
2018-05-21T16:26:01.229Z,51.90
2018-05-21T16:28:27.631Z,51.20
2018-05-21T16:30:53.981Z,53.20
2018-05-21T16:33:20.391Z,52.40
2018-05-21T16:35:46.741Z,52.60
2018-05-21T16:38:20.076Z,52.40
2018-05-21T16:40:46.497Z,51.70
2018-05-21T16:43:12.821Z,51.90
2018-05-21T16:45:39.238Z,52.90
2018-05-21T16:48:05.633Z,52.80
2018-05-21T16:50:32.032Z,53.00
2018-05-21T16:52:59.157Z,52.70
2018-05-21T16:55:25.495Z,52.60
2018-05-21T16:57:51.942Z,52.80
2018-05-21T17:00:19.083Z,45.10
2018-05-21T17:02:45.432Z,45.00
2018-05-21T17:05:12.639Z,48.20
2018-05-21T17:07:39.113Z,47.90
2018-05-21T17:10:05.510Z,47.20
2018-05-21T17:12:31.821Z,46.80
2018-05-21T17:14:58.220Z,45.70
2018-05-21T17:17:24.607Z,45.90
2018-05-21T17:19:50.993Z,46.00
2018-05-21T17:22:17.308Z,43.40
2018-05-21T17:24:43.643Z,43.40
2018-05-21T17:27:10.044Z,43.70
2018-05-21T17:29:37.115Z,43.40
2018-05-21T17:32:03.495Z,43.20
2018-05-21T17:34:29.878Z,43.50
2018-05-21T17:36:56.215Z,44.30
2018-05-21T17:39:22.552Z,44.50
2018-05-21T17:41:48.955Z,43.90
2018-05-21T17:44:15.333Z,43.70
2018-05-21T17:46:41.705Z,43.10
2018-05-21T17:49:08.067Z,42.50
2018-05-21T17:51:34.426Z,43.80
2018-05-21T17:54:00.867Z,43.80
2018-05-21T17:56:27.219Z,43.10
2018-05-21T17:58:53.570Z,42.20
2018-05-21T18:01:19.977Z,42.20
2018-05-21T18:03:46.329Z,42.10
2018-05-21T18:06:12.700Z,42.10
2018-05-21T18:08:39.084Z,41.90
2018-05-21T18:11:05.507Z,42.00
2018-05-21T18:13:31.932Z,42.60
2018-05-21T18:15:59.118Z,45.40
2018-05-21T18:18:25.514Z,45.40
2018-05-21T18:20:52.624Z,46.80
2018-05-21T18:23:18.976Z,46.80
2018-05-21T18:25:45.306Z,47.50
2018-05-21T18:28:11.660Z,48.60
2018-05-21T18:30:38.774Z,51.80
2018-05-21T18:33:05.137Z,51.80
2018-05-21T18:35:32.259Z,54.80
2018-05-21T18:37:58.653Z,54.70
2018-05-21T18:40:25.112Z,54.80
2018-05-21T18:42:51.459Z,55.20
2018-05-21T18:47:51.313Z,54.80
2018-05-21T18:50:17.689Z,53.90
2018-05-21T18:52:44.153Z,54.40
2018-05-21T18:55:10.500Z,55.20
2018-05-21T18:57:36.948Z,54.40
2018-05-21T19:00:03.402Z,53.40
2018-05-21T19:02:29.747Z,54.60
2018-05-21T19:04:56.111Z,54.60
2018-05-21T19:07:23.228Z,54.40
2018-05-21T19:09:49.641Z,54.30
2018-05-21T19:12:16.018Z,53.80
2018-05-21T19:14:43.179Z,54.10
2018-05-21T19:17:09.624Z,54.10
2018-05-21T19:19:36.932Z,54.20
2018-05-21T19:22:03.328Z,54.10
2018-05-21T19:24:29.680Z,54.30
2018-05-21T19:26:56.069Z,55.10
2018-05-21T19:29:22.548Z,56.50
2018-05-21T19:31:48.935Z,56.20
2018-05-21T19:34:15.326Z,57.50
2018-05-21T19:36:41.738Z,62.60
2018-05-21T19:39:08.119Z,65.30
2018-05-21T19:41:34.519Z,67.60
2018-05-21T19:44:01.111Z,70.80
2018-05-21T19:46:27.624Z,73.70
2018-05-21T19:48:54.068Z,75.20
2018-05-21T19:51:20.865Z,75.80
2018-05-21T19:53:47.242Z,77.70
2018-05-21T19:56:13.610Z,77.20
2018-05-21T19:58:40.036Z,79.30
2018-05-21T20:01:06.458Z,78.80
2018-05-21T20:03:32.880Z,80.70
2018-05-21T20:05:59.273Z,83.90
2018-05-21T20:08:25.679Z,84.50
2018-05-21T20:10:52.083Z,89.60
2018-05-21T20:13:18.439Z,92.10
2018-05-21T20:15:44.815Z,93.70
2018-05-21T20:18:11.208Z,93.10
2018-05-21T20:20:42.177Z,90.70
2018-05-21T20:23:10.346Z,90.70
2018-05-21T20:25:36.760Z,91.30
2018-05-21T20:28:03.759Z,91.60
2018-05-21T20:30:31.089Z,91.40
2018-05-21T20:32:57.468Z,91.30
2018-05-21T20:35:23.979Z,91.70
2018-05-21T20:37:50.395Z,89.20
2018-05-21T20:40:16.812Z,90.50
2018-05-21T20:42:44.322Z,92.20
2018-05-21T20:45:10.711Z,90.70
2018-05-21T20:47:37.684Z,91.50
2018-05-21T20:50:04.884Z,92.00
2018-05-21T20:52:31.463Z,90.90
2018-05-21T20:55:07.884Z,90.60
2018-05-21T20:57:34.277Z,90.10
2018-05-21T21:00:00.674Z,90.30
2018-05-21T21:02:27.062Z,90.00
2018-05-21T21:04:53.402Z,91.30
2018-05-21T21:07:21.700Z,92.00
2018-05-21T21:09:48.065Z,90.80
2018-05-21T21:12:14.465Z,89.60
2018-05-21T21:14:40.827Z,85.70
2018-05-21T21:17:07.230Z,84.40
2018-05-21T21:19:33.592Z,88.70
2018-05-21T21:21:59.977Z,89.80
2018-05-21T21:24:26.365Z,86.60
2018-05-21T21:26:54.458Z,91.20
2018-05-21T21:29:20.866Z,91.10
2018-05-21T21:31:47.218Z,90.40
2018-05-21T21:34:13.608Z,88.80
2018-05-21T21:36:39.986Z,91.80
2018-05-21T21:39:07.205Z,93.50
2018-05-21T21:41:34.368Z,93.40
2018-05-21T21:44:01.539Z,93.20
2018-05-21T21:46:27.946Z,93.20
2018-05-21T21:48:54.421Z,92.10
2018-05-21T21:51:20.844Z,91.60
2018-05-21T21:53:47.218Z,92.20
2018-05-21T21:56:13.589Z,92.20
2018-05-21T21:58:39.998Z,93.20
2018-05-21T22:01:07.218Z,93.40
2018-05-21T22:03:33.614Z,93.40
2018-05-21T22:06:00.768Z,93.00
2018-05-21T22:08:27.166Z,90.50
2018-05-21T22:10:54.302Z,92.50
2018-05-21T22:13:21.525Z,92.00
2018-05-21T22:15:47.825Z,91.80
2018-05-21T22:18:14.197Z,90.50
2018-05-21T22:20:40.585Z,91.40
2018-05-21T22:23:07.388Z,91.30
2018-05-21T22:25:34.468Z,91.40
2018-05-21T22:28:00.807Z,91.40
2018-05-21T22:30:27.168Z,91.00
2018-05-21T22:32:53.521Z,91.10
2018-05-21T22:35:20.896Z,91.40
2018-05-21T22:37:47.232Z,92.90
2018-05-21T22:40:13.618Z,93.20
2018-05-21T22:42:40.475Z,93.00
2018-05-21T22:45:06.897Z,91.90
2018-05-21T22:47:34.126Z,91.30
2018-05-21T22:50:01.012Z,92.60
2018-05-21T22:52:28.167Z,92.50
2018-05-21T22:54:54.562Z,92.50
2018-05-21T22:57:20.934Z,92.20
2018-05-21T22:59:47.295Z,91.80
2018-05-21T23:02:13.671Z,90.80
2018-05-21T23:04:40.788Z,90.70
2018-05-21T23:07:07.131Z,90.70
2018-05-21T23:09:33.498Z,89.50
2018-05-21T23:11:59.915Z,91.00
2018-05-21T23:14:26.313Z,91.20
2018-05-21T23:16:52.704Z,91.60
2018-05-21T23:19:19.810Z,91.60
2018-05-21T23:21:46.955Z,92.10
2018-05-21T23:24:13.316Z,92.00
2018-05-21T23:26:39.642Z,91.50
2018-05-21T23:29:05.989Z,91.30
2018-05-21T23:31:32.288Z,90.20
2018-05-21T23:33:58.671Z,89.30
2018-05-21T23:36:25.938Z,91.10
2018-05-21T23:38:52.303Z,92.30
2018-05-21T23:41:18.691Z,92.60
2018-05-21T23:43:45.099Z,92.50
2018-05-21T23:46:11.428Z,91.80
2018-05-21T23:48:37.810Z,92.20
2018-05-21T23:51:04.891Z,92.00
2018-05-21T23:53:31.254Z,92.00
2018-05-21T23:55:58.316Z,92.30
2018-05-21T23:58:24.652Z,92.40
